sensor_id;sensor_type;location;lat;lon;timestamp;P1;durP1;ratioP1;P2;durP2;ratioP2
34234;SDS011;20500;49.856;20.290;2023-11-21T00:00:52;10.70;;;3.50;;
34234;SDS011;20500;49.856;20.290;2023-11-21T00:03:58;9.60;;;3.40;;
34234;SDS011;20500;49.856;20.290;2023-11-21T00:07:04;10.90;;;3.80;;
34234;SDS011;20500;49.856;20.290;2023-11-21T00:10:10;10.50;;;3.30;;
34234;SDS011;20500;49.856;20.290;2023-11-21T00:13:18;12.00;;;5.70;;
34234;SDS011;20500;49.856;20.290;2023-11-21T00:16:25;8.50;;;3.30;;
34234;SDS011;20500;49.856;20.290;2023-11-21T00:19:30;8.60;;;2.80;;
34234;SDS011;20500;49.856;20.290;2023-11-21T00:22:38;8.60;;;3.40;;
34234;SDS011;20500;49.856;20.290;2023-11-21T00:25:44;9.10;;;3.00;;
34234;SDS011;20500;49.856;20.290;2023-11-21T00:28:50;7.60;;;2.90;;
34234;SDS011;20500;49.856;20.290;2023-11-21T00:31:57;8.60;;;3.30;;
34234;SDS011;20500;49.856;20.290;2023-11-21T00:35:03;10.10;;;3.60;;
34234;SDS011;20500;49.856;20.290;2023-11-21T00:38:10;9.70;;;3.60;;
34234;SDS011;20500;49.856;20.290;2023-11-21T00:41:16;10.50;;;3.20;;
34234;SDS011;20500;49.856;20.290;2023-11-21T00:44:21;9.00;;;3.40;;
34234;SDS011;20500;49.856;20.290;2023-11-21T00:47:27;10.00;;;3.30;;
34234;SDS011;20500;49.856;20.290;2023-11-21T00:50:33;7.90;;;3.00;;
34234;SDS011;20500;49.856;20.290;2023-11-21T00:53:39;11.20;;;4.20;;
34234;SDS011;20500;49.856;20.290;2023-11-21T00:56:44;8.80;;;3.30;;
34234;SDS011;20500;49.856;20.290;2023-11-21T01:02:55;8.70;;;3.50;;
34234;SDS011;20500;49.856;20.290;2023-11-21T01:06:01;8.30;;;3.20;;
34234;SDS011;20500;49.856;20.290;2023-11-21T01:09:10;9.40;;;3.60;;
34234;SDS011;20500;49.856;20.290;2023-11-21T01:12:16;9.90;;;4.00;;
34234;SDS011;20500;49.856;20.290;2023-11-21T01:15:21;8.40;;;3.30;;
34234;SDS011;20500;49.856;20.290;2023-11-21T01:18:28;10.50;;;3.80;;
34234;SDS011;20500;49.856;20.290;2023-11-21T01:21:34;9.00;;;3.20;;
34234;SDS011;20500;49.856;20.290;2023-11-21T01:24:40;9.90;;;3.60;;
34234;SDS011;20500;49.856;20.290;2023-11-21T01:27:45;10.20;;;4.20;;
34234;SDS011;20500;49.856;20.290;2023-11-21T01:30:51;8.40;;;3.50;;
34234;SDS011;20500;49.856;20.290;2023-11-21T01:33:59;10.70;;;3.80;;
34234;SDS011;20500;49.856;20.290;2023-11-21T01:37:05;10.80;;;4.10;;
34234;SDS011;20500;49.856;20.290;2023-11-21T01:40:12;8.20;;;3.30;;
34234;SDS011;20500;49.856;20.290;2023-11-21T01:43:18;9.50;;;3.70;;
34234;SDS011;20500;49.856;20.290;2023-11-21T01:46:24;7.60;;;3.10;;
34234;SDS011;20500;49.856;20.290;2023-11-21T01:49:30;8.20;;;3.00;;
34234;SDS011;20500;49.856;20.290;2023-11-21T01:52:37;9.20;;;3.40;;
34234;SDS011;20500;49.856;20.290;2023-11-21T01:55:44;6.40;;;2.50;;
34234;SDS011;20500;49.856;20.290;2023-11-21T01:58:52;7.90;;;3.10;;
34234;SDS011;20500;49.856;20.290;2023-11-21T02:01:58;7.80;;;2.40;;
34234;SDS011;20500;49.856;20.290;2023-11-21T02:05:04;7.40;;;3.10;;
34234;SDS011;20500;49.856;20.290;2023-11-21T02:08:11;7.70;;;2.90;;
34234;SDS011;20500;49.856;20.290;2023-11-21T02:11:17;9.20;;;3.70;;
34234;SDS011;20500;49.856;20.290;2023-11-21T02:14:23;8.30;;;2.80;;
34234;SDS011;20500;49.856;20.290;2023-11-21T02:17:29;9.30;;;3.10;;
34234;SDS011;20500;49.856;20.290;2023-11-21T02:20:36;9.40;;;3.70;;
34234;SDS011;20500;49.856;20.290;2023-11-21T02:23:44;9.20;;;3.60;;
34234;SDS011;20500;49.856;20.290;2023-11-21T02:26:50;7.80;;;2.90;;
34234;SDS011;20500;49.856;20.290;2023-11-21T02:29:56;9.10;;;3.60;;
34234;SDS011;20500;49.856;20.290;2023-11-21T02:33:02;9.10;;;3.70;;
34234;SDS011;20500;49.856;20.290;2023-11-21T02:36:10;8.90;;;3.30;;
34234;SDS011;20500;49.856;20.290;2023-11-21T02:39:15;7.60;;;3.30;;
34234;SDS011;20500;49.856;20.290;2023-11-21T02:42:24;8.90;;;3.00;;
34234;SDS011;20500;49.856;20.290;2023-11-21T02:45:30;4.90;;;2.00;;
34234;SDS011;20500;49.856;20.290;2023-11-21T02:48:36;6.80;;;2.60;;
34234;SDS011;20500;49.856;20.290;2023-11-21T02:51:41;9.40;;;2.80;;
34234;SDS011;20500;49.856;20.290;2023-11-21T02:54:47;6.40;;;2.40;;
34234;SDS011;20500;49.856;20.290;2023-11-21T02:57:53;9.40;;;3.80;;
34234;SDS011;20500;49.856;20.290;2023-11-21T03:01:00;8.60;;;3.00;;
34234;SDS011;20500;49.856;20.290;2023-11-21T03:04:08;9.00;;;3.40;;
34234;SDS011;20500;49.856;20.290;2023-11-21T03:07:14;7.60;;;2.70;;
34234;SDS011;20500;49.856;20.290;2023-11-21T03:10:20;8.40;;;3.00;;
34234;SDS011;20500;49.856;20.290;2023-11-21T03:16:31;7.80;;;2.40;;
34234;SDS011;20500;49.856;20.290;2023-11-21T03:22:41;7.40;;;2.40;;
34234;SDS011;20500;49.856;20.290;2023-11-21T03:25:47;7.50;;;2.40;;
34234;SDS011;20500;49.856;20.290;2023-11-21T03:28:53;9.00;;;2.80;;
34234;SDS011;20500;49.856;20.290;2023-11-21T03:31:59;8.70;;;2.90;;
34234;SDS011;20500;49.856;20.290;2023-11-21T03:35:06;8.30;;;2.60;;
34234;SDS011;20500;49.856;20.290;2023-11-21T03:38:12;7.40;;;2.40;;
34234;SDS011;20500;49.856;20.290;2023-11-21T03:41:18;8.70;;;2.70;;
34234;SDS011;20500;49.856;20.290;2023-11-21T03:44:24;7.20;;;2.30;;
34234;SDS011;20500;49.856;20.290;2023-11-21T03:47:30;10.00;;;3.80;;
34234;SDS011;20500;49.856;20.290;2023-11-21T03:50:36;8.00;;;3.00;;
34234;SDS011;20500;49.856;20.290;2023-11-21T03:53:42;6.90;;;2.50;;
34234;SDS011;20500;49.856;20.290;2023-11-21T03:56:47;7.60;;;2.40;;
34234;SDS011;20500;49.856;20.290;2023-11-21T03:59:53;8.40;;;2.50;;
34234;SDS011;20500;49.856;20.290;2023-11-21T04:02:59;6.80;;;2.60;;
34234;SDS011;20500;49.856;20.290;2023-11-21T04:06:06;10.80;;;3.80;;
34234;SDS011;20500;49.856;20.290;2023-11-21T04:09:12;7.90;;;2.60;;
34234;SDS011;20500;49.856;20.290;2023-11-21T04:12:18;9.00;;;3.20;;
34234;SDS011;20500;49.856;20.290;2023-11-21T04:15:24;9.30;;;2.70;;
34234;SDS011;20500;49.856;20.290;2023-11-21T04:18:30;7.80;;;2.40;;
34234;SDS011;20500;49.856;20.290;2023-11-21T04:21:35;8.20;;;2.30;;
34234;SDS011;20500;49.856;20.290;2023-11-21T04:24:41;7.20;;;2.40;;
34234;SDS011;20500;49.856;20.290;2023-11-21T04:27:47;8.90;;;2.60;;
34234;SDS011;20500;49.856;20.290;2023-11-21T04:30:53;7.50;;;2.80;;
34234;SDS011;20500;49.856;20.290;2023-11-21T04:33:58;8.70;;;2.80;;
34234;SDS011;20500;49.856;20.290;2023-11-21T04:37:07;8.80;;;2.80;;
34234;SDS011;20500;49.856;20.290;2023-11-21T04:40:13;7.90;;;2.60;;
34234;SDS011;20500;49.856;20.290;2023-11-21T04:43:19;9.60;;;3.30;;
34234;SDS011;20500;49.856;20.290;2023-11-21T04:46:25;9.10;;;3.20;;
34234;SDS011;20500;49.856;20.290;2023-11-21T04:49:31;9.10;;;2.90;;
34234;SDS011;20500;49.856;20.290;2023-11-21T04:52:36;9.10;;;2.80;;
34234;SDS011;20500;49.856;20.290;2023-11-21T04:55:42;7.90;;;2.60;;
34234;SDS011;20500;49.856;20.290;2023-11-21T04:58:48;9.40;;;2.70;;
34234;SDS011;20500;49.856;20.290;2023-11-21T05:01:54;9.20;;;3.00;;
34234;SDS011;20500;49.856;20.290;2023-11-21T05:05:00;10.60;;;3.70;;
34234;SDS011;20500;49.856;20.290;2023-11-21T05:08:08;7.90;;;2.90;;
34234;SDS011;20500;49.856;20.290;2023-11-21T05:11:23;10.90;;;2.80;;
34234;SDS011;20500;49.856;20.290;2023-11-21T05:14:30;8.40;;;2.80;;
34234;SDS011;20500;49.856;20.290;2023-11-21T05:17:36;8.20;;;2.60;;
34234;SDS011;20500;49.856;20.290;2023-11-21T05:20:45;8.70;;;3.00;;
34234;SDS011;20500;49.856;20.290;2023-11-21T05:23:51;7.50;;;2.80;;
34234;SDS011;20500;49.856;20.290;2023-11-21T05:26:57;10.10;;;3.30;;
34234;SDS011;20500;49.856;20.290;2023-11-21T05:30:03;8.70;;;2.90;;
34234;SDS011;20500;49.856;20.290;2023-11-21T05:33:12;12.20;;;2.90;;
34234;SDS011;20500;49.856;20.290;2023-11-21T05:36:18;11.90;;;3.90;;
34234;SDS011;20500;49.856;20.290;2023-11-21T05:39:23;10.80;;;3.40;;
34234;SDS011;20500;49.856;20.290;2023-11-21T05:42:30;9.80;;;3.70;;
34234;SDS011;20500;49.856;20.290;2023-11-21T05:45:36;9.90;;;3.20;;
34234;SDS011;20500;49.856;20.290;2023-11-21T05:48:42;9.90;;;3.40;;
34234;SDS011;20500;49.856;20.290;2023-11-21T05:51:48;9.40;;;3.20;;
34234;SDS011;20500;49.856;20.290;2023-11-21T05:54:56;11.10;;;3.80;;
34234;SDS011;20500;49.856;20.290;2023-11-21T05:58:02;9.30;;;3.50;;
34234;SDS011;20500;49.856;20.290;2023-11-21T06:01:08;11.60;;;3.90;;
34234;SDS011;20500;49.856;20.290;2023-11-21T06:04:15;9.20;;;3.50;;
34234;SDS011;20500;49.856;20.290;2023-11-21T06:07:21;9.60;;;3.50;;
34234;SDS011;20500;49.856;20.290;2023-11-21T06:10:27;12.00;;;3.90;;
34234;SDS011;20500;49.856;20.290;2023-11-21T06:16:37;9.40;;;3.60;;
34234;SDS011;20500;49.856;20.290;2023-11-21T06:22:49;10.30;;;3.50;;
34234;SDS011;20500;49.856;20.290;2023-11-21T06:25:55;10.30;;;3.50;;
34234;SDS011;20500;49.856;20.290;2023-11-21T06:29:01;8.70;;;3.10;;
34234;SDS011;20500;49.856;20.290;2023-11-21T06:32:07;10.10;;;3.60;;
34234;SDS011;20500;49.856;20.290;2023-11-21T06:35:13;9.50;;;3.50;;
34234;SDS011;20500;49.856;20.290;2023-11-21T06:38:20;9.10;;;3.40;;
34234;SDS011;20500;49.856;20.290;2023-11-21T06:41:25;11.30;;;3.90;;
34234;SDS011;20500;49.856;20.290;2023-11-21T06:44:32;9.60;;;3.70;;
34234;SDS011;20500;49.856;20.290;2023-11-21T06:47:40;12.90;;;4.10;;
34234;SDS011;20500;49.856;20.290;2023-11-21T06:50:46;12.10;;;4.20;;
34234;SDS011;20500;49.856;20.290;2023-11-21T06:53:52;15.60;;;4.70;;
34234;SDS011;20500;49.856;20.290;2023-11-21T06:56:58;9.70;;;3.70;;
34234;SDS011;20500;49.856;20.290;2023-11-21T07:00:05;11.90;;;4.30;;
34234;SDS011;20500;49.856;20.290;2023-11-21T07:03:12;11.10;;;4.10;;
34234;SDS011;20500;49.856;20.290;2023-11-21T07:06:18;10.80;;;4.30;;
34234;SDS011;20500;49.856;20.290;2023-11-21T07:09:24;11.40;;;4.40;;
34234;SDS011;20500;49.856;20.290;2023-11-21T07:12:30;12.10;;;4.10;;
34234;SDS011;20500;49.856;20.290;2023-11-21T07:15:37;11.20;;;4.80;;
34234;SDS011;20500;49.856;20.290;2023-11-21T07:18:43;14.20;;;6.60;;
34234;SDS011;20500;49.856;20.290;2023-11-21T07:21:49;12.60;;;6.30;;
34234;SDS011;20500;49.856;20.290;2023-11-21T07:24:55;13.90;;;6.70;;
34234;SDS011;20500;49.856;20.290;2023-11-21T07:28:00;13.60;;;6.60;;
34234;SDS011;20500;49.856;20.290;2023-11-21T07:31:08;13.90;;;6.50;;
34234;SDS011;20500;49.856;20.290;2023-11-21T07:34:14;13.40;;;6.10;;
34234;SDS011;20500;49.856;20.290;2023-11-21T07:37:19;12.60;;;5.80;;
34234;SDS011;20500;49.856;20.290;2023-11-21T07:40:25;11.50;;;5.70;;
34234;SDS011;20500;49.856;20.290;2023-11-21T07:43:33;13.80;;;6.20;;
34234;SDS011;20500;49.856;20.290;2023-11-21T07:46:39;13.00;;;5.40;;
34234;SDS011;20500;49.856;20.290;2023-11-21T07:49:45;12.40;;;5.30;;
34234;SDS011;20500;49.856;20.290;2023-11-21T07:52:51;11.70;;;5.40;;
34234;SDS011;20500;49.856;20.290;2023-11-21T07:59:01;11.70;;;5.90;;
34234;SDS011;20500;49.856;20.290;2023-11-21T08:02:07;11.90;;;6.00;;
34234;SDS011;20500;49.856;20.290;2023-11-21T08:05:13;16.70;;;6.10;;
34234;SDS011;20500;49.856;20.290;2023-11-21T08:08:30;12.70;;;5.10;;
34234;SDS011;20500;49.856;20.290;2023-11-21T08:11:36;11.20;;;5.00;;
34234;SDS011;20500;49.856;20.290;2023-11-21T08:14:41;13.90;;;5.60;;
34234;SDS011;20500;49.856;20.290;2023-11-21T08:17:47;12.30;;;5.50;;
34234;SDS011;20500;49.856;20.290;2023-11-21T08:20:53;11.70;;;4.90;;
34234;SDS011;20500;49.856;20.290;2023-11-21T08:24:00;10.80;;;5.00;;
34234;SDS011;20500;49.856;20.290;2023-11-21T08:27:07;12.40;;;5.30;;
34234;SDS011;20500;49.856;20.290;2023-11-21T08:30:13;10.40;;;4.80;;
34234;SDS011;20500;49.856;20.290;2023-11-21T08:33:22;12.70;;;5.20;;
34234;SDS011;20500;49.856;20.290;2023-11-21T08:36:28;10.80;;;5.30;;
34234;SDS011;20500;49.856;20.290;2023-11-21T08:39:34;13.30;;;5.90;;
34234;SDS011;20500;49.856;20.290;2023-11-21T08:42:41;11.20;;;5.00;;
34234;SDS011;20500;49.856;20.290;2023-11-21T08:45:48;12.00;;;4.50;;
34234;SDS011;20500;49.856;20.290;2023-11-21T08:48:54;12.50;;;5.10;;
34234;SDS011;20500;49.856;20.290;2023-11-21T08:51:59;12.90;;;5.10;;
34234;SDS011;20500;49.856;20.290;2023-11-21T08:55:06;11.10;;;5.00;;
34234;SDS011;20500;49.856;20.290;2023-11-21T08:58:15;10.10;;;4.80;;
34234;SDS011;20500;49.856;20.290;2023-11-21T09:01:21;10.90;;;5.10;;
34234;SDS011;20500;49.856;20.290;2023-11-21T09:04:27;11.70;;;6.20;;
34234;SDS011;20500;49.856;20.290;2023-11-21T09:07:33;13.10;;;5.50;;
34234;SDS011;20500;49.856;20.290;2023-11-21T09:10:39;13.10;;;5.40;;
34234;SDS011;20500;49.856;20.290;2023-11-21T09:13:46;14.20;;;5.80;;
34234;SDS011;20500;49.856;20.290;2023-11-21T09:16:52;13.60;;;5.90;;
34234;SDS011;20500;49.856;20.290;2023-11-21T09:19:58;13.30;;;5.80;;
34234;SDS011;20500;49.856;20.290;2023-11-21T09:23:06;12.30;;;6.00;;
34234;SDS011;20500;49.856;20.290;2023-11-21T09:26:13;14.20;;;6.20;;
34234;SDS011;20500;49.856;20.290;2023-11-21T09:29:19;16.50;;;6.60;;
34234;SDS011;20500;49.856;20.290;2023-11-21T09:32:25;12.50;;;6.20;;
34234;SDS011;20500;49.856;20.290;2023-11-21T09:35:30;12.50;;;5.90;;
34234;SDS011;20500;49.856;20.290;2023-11-21T09:41:43;12.80;;;5.60;;
34234;SDS011;20500;49.856;20.290;2023-11-21T09:44:53;12.40;;;5.90;;
34234;SDS011;20500;49.856;20.290;2023-11-21T09:48:04;15.10;;;6.10;;
34234;SDS011;20500;49.856;20.290;2023-11-21T09:51:11;14.10;;;6.90;;
34234;SDS011;20500;49.856;20.290;2023-11-21T09:54:17;12.00;;;5.70;;
34234;SDS011;20500;49.856;20.290;2023-11-21T09:57:24;12.00;;;5.30;;
34234;SDS011;20500;49.856;20.290;2023-11-21T10:00:30;15.60;;;6.10;;
34234;SDS011;20500;49.856;20.290;2023-11-21T10:06:42;12.70;;;5.60;;
34234;SDS011;20500;49.856;20.290;2023-11-21T10:09:49;13.00;;;5.30;;
34234;SDS011;20500;49.856;20.290;2023-11-21T10:12:56;11.10;;;5.50;;
34234;SDS011;20500;49.856;20.290;2023-11-21T10:16:06;12.40;;;5.50;;
34234;SDS011;20500;49.856;20.290;2023-11-21T10:19:14;12.90;;;5.60;;
34234;SDS011;20500;49.856;20.290;2023-11-21T10:22:21;13.50;;;5.80;;
34234;SDS011;20500;49.856;20.290;2023-11-21T10:25:29;14.40;;;5.80;;
34234;SDS011;20500;49.856;20.290;2023-11-21T10:28:36;13.30;;;6.00;;
34234;SDS011;20500;49.856;20.290;2023-11-21T10:31:42;11.50;;;5.00;;
34234;SDS011;20500;49.856;20.290;2023-11-21T10:34:56;13.70;;;5.20;;
34234;SDS011;20500;49.856;20.290;2023-11-21T10:38:09;13.00;;;5.40;;
34234;SDS011;20500;49.856;20.290;2023-11-21T10:41:16;13.60;;;5.80;;
34234;SDS011;20500;49.856;20.290;2023-11-21T10:44:23;12.70;;;5.20;;
34234;SDS011;20500;49.856;20.290;2023-11-21T10:47:29;11.40;;;4.90;;
34234;SDS011;20500;49.856;20.290;2023-11-21T10:50:38;12.50;;;5.30;;
34234;SDS011;20500;49.856;20.290;2023-11-21T10:53:44;12.90;;;5.10;;
34234;SDS011;20500;49.856;20.290;2023-11-21T10:56:51;11.80;;;4.60;;
34234;SDS011;20500;49.856;20.290;2023-11-21T11:00:02;11.90;;;4.60;;
34234;SDS011;20500;49.856;20.290;2023-11-21T11:03:09;14.20;;;5.00;;
34234;SDS011;20500;49.856;20.290;2023-11-21T11:06:19;12.60;;;4.80;;
34234;SDS011;20500;49.856;20.290;2023-11-21T11:09:30;14.20;;;6.00;;
34234;SDS011;20500;49.856;20.290;2023-11-21T11:12:36;14.60;;;5.10;;
34234;SDS011;20500;49.856;20.290;2023-11-21T11:15:43;13.80;;;5.10;;
34234;SDS011;20500;49.856;20.290;2023-11-21T11:18:52;13.80;;;6.50;;
34234;SDS011;20500;49.856;20.290;2023-11-21T11:22:00;13.00;;;5.90;;
34234;SDS011;20500;49.856;20.290;2023-11-21T11:25:18;12.40;;;5.60;;
34234;SDS011;20500;49.856;20.290;2023-11-21T11:28:38;12.30;;;5.40;;
34234;SDS011;20500;49.856;20.290;2023-11-21T11:31:50;12.70;;;5.10;;
34234;SDS011;20500;49.856;20.290;2023-11-21T11:35:13;12.00;;;4.80;;
34234;SDS011;20500;49.856;20.290;2023-11-21T11:38:28;12.00;;;5.30;;
34234;SDS011;20500;49.856;20.290;2023-11-21T11:41:38;11.70;;;4.90;;
34234;SDS011;20500;49.856;20.290;2023-11-21T11:44:48;12.00;;;4.60;;
34234;SDS011;20500;49.856;20.290;2023-11-21T11:47:57;12.70;;;4.60;;
34234;SDS011;20500;49.856;20.290;2023-11-21T11:51:05;11.30;;;4.80;;
34234;SDS011;20500;49.856;20.290;2023-11-21T11:54:17;13.20;;;4.90;;
34234;SDS011;20500;49.856;20.290;2023-11-21T11:57:41;11.20;;;4.40;;
34234;SDS011;20500;49.856;20.290;2023-11-21T12:00:49;11.90;;;4.20;;
34234;SDS011;20500;49.856;20.290;2023-11-21T12:07:42;10.40;;;4.40;;
34234;SDS011;20500;49.856;20.290;2023-11-21T12:10:49;12.00;;;4.20;;
34234;SDS011;20500;49.856;20.290;2023-11-21T12:13:57;10.10;;;4.40;;
34234;SDS011;20500;49.856;20.290;2023-11-21T12:17:03;14.00;;;6.10;;
34234;SDS011;20500;49.856;20.290;2023-11-21T12:20:11;10.60;;;4.10;;
34234;SDS011;20500;49.856;20.290;2023-11-21T12:23:21;13.10;;;4.40;;
34234;SDS011;20500;49.856;20.290;2023-11-21T12:26:28;9.90;;;3.90;;
34234;SDS011;20500;49.856;20.290;2023-11-21T12:29:33;10.00;;;4.00;;
34234;SDS011;20500;49.856;20.290;2023-11-21T12:32:40;10.30;;;4.10;;
34234;SDS011;20500;49.856;20.290;2023-11-21T12:35:48;10.60;;;4.30;;
34234;SDS011;20500;49.856;20.290;2023-11-21T12:38:56;10.60;;;4.00;;
34234;SDS011;20500;49.856;20.290;2023-11-21T12:42:02;10.70;;;4.40;;
34234;SDS011;20500;49.856;20.290;2023-11-21T12:45:11;10.80;;;3.90;;
34234;SDS011;20500;49.856;20.290;2023-11-21T12:48:24;10.90;;;4.50;;
34234;SDS011;20500;49.856;20.290;2023-11-21T12:51:30;10.40;;;3.70;;
34234;SDS011;20500;49.856;20.290;2023-11-21T12:54:36;12.80;;;5.30;;
34234;SDS011;20500;49.856;20.290;2023-11-21T13:00:48;13.60;;;5.00;;
34234;SDS011;20500;49.856;20.290;2023-11-21T13:03:58;12.50;;;4.40;;
34234;SDS011;20500;49.856;20.290;2023-11-21T13:07:06;11.20;;;4.00;;
34234;SDS011;20500;49.856;20.290;2023-11-21T13:10:18;8.80;;;3.50;;
34234;SDS011;20500;49.856;20.290;2023-11-21T13:13:29;13.00;;;4.80;;
34234;SDS011;20500;49.856;20.290;2023-11-21T13:16:36;11.10;;;4.10;;
34234;SDS011;20500;49.856;20.290;2023-11-21T13:19:45;11.00;;;4.40;;
34234;SDS011;20500;49.856;20.290;2023-11-21T13:22:51;11.30;;;4.40;;
34234;SDS011;20500;49.856;20.290;2023-11-21T13:26:00;10.90;;;4.60;;
34234;SDS011;20500;49.856;20.290;2023-11-21T13:29:09;13.40;;;6.30;;
34234;SDS011;20500;49.856;20.290;2023-11-21T13:32:15;11.30;;;5.10;;
34234;SDS011;20500;49.856;20.290;2023-11-21T13:35:25;12.80;;;4.70;;
34234;SDS011;20500;49.856;20.290;2023-11-21T13:38:35;10.10;;;4.40;;
34234;SDS011;20500;49.856;20.290;2023-11-21T13:41:46;11.60;;;5.10;;
34234;SDS011;20500;49.856;20.290;2023-11-21T13:44:58;12.20;;;5.60;;
34234;SDS011;20500;49.856;20.290;2023-11-21T13:48:04;12.30;;;5.80;;
34234;SDS011;20500;49.856;20.290;2023-11-21T13:51:13;14.20;;;5.70;;
34234;SDS011;20500;49.856;20.290;2023-11-21T13:54:20;20.50;;;5.80;;
34234;SDS011;20500;49.856;20.290;2023-11-21T13:57:28;13.80;;;5.70;;
34234;SDS011;20500;49.856;20.290;2023-11-21T14:00:35;13.10;;;5.60;;
34234;SDS011;20500;49.856;20.290;2023-11-21T14:03:48;13.60;;;6.20;;
34234;SDS011;20500;49.856;20.290;2023-11-21T14:06:59;12.10;;;5.40;;
34234;SDS011;20500;49.856;20.290;2023-11-21T14:10:23;14.00;;;5.90;;
34234;SDS011;20500;49.856;20.290;2023-11-21T14:13:29;11.90;;;4.80;;
34234;SDS011;20500;49.856;20.290;2023-11-21T14:16:35;13.10;;;6.20;;
34234;SDS011;20500;49.856;20.290;2023-11-21T14:19:41;13.70;;;6.40;;
34234;SDS011;20500;49.856;20.290;2023-11-21T14:22:47;12.40;;;5.90;;
34234;SDS011;20500;49.856;20.290;2023-11-21T14:28:59;12.50;;;5.90;;
34234;SDS011;20500;49.856;20.290;2023-11-21T14:32:06;14.10;;;6.50;;
34234;SDS011;20500;49.856;20.290;2023-11-21T14:35:12;12.60;;;5.80;;
34234;SDS011;20500;49.856;20.290;2023-11-21T14:38:19;13.50;;;6.20;;
34234;SDS011;20500;49.856;20.290;2023-11-21T14:41:25;13.70;;;6.30;;
34234;SDS011;20500;49.856;20.290;2023-11-21T14:44:31;11.90;;;5.50;;
34234;SDS011;20500;49.856;20.290;2023-11-21T14:47:41;12.70;;;6.10;;
34234;SDS011;20500;49.856;20.290;2023-11-21T14:50:53;13.40;;;6.30;;
34234;SDS011;20500;49.856;20.290;2023-11-21T14:54:13;12.50;;;6.30;;
34234;SDS011;20500;49.856;20.290;2023-11-21T14:57:28;12.40;;;6.50;;
34234;SDS011;20500;49.856;20.290;2023-11-21T15:00:34;13.70;;;7.50;;
34234;SDS011;20500;49.856;20.290;2023-11-21T15:03:48;12.70;;;6.70;;
34234;SDS011;20500;49.856;20.290;2023-11-21T15:06:54;12.20;;;6.20;;
34234;SDS011;20500;49.856;20.290;2023-11-21T15:10:01;12.40;;;6.10;;
34234;SDS011;20500;49.856;20.290;2023-11-21T15:13:13;14.60;;;6.50;;
34234;SDS011;20500;49.856;20.290;2023-11-21T15:16:19;16.50;;;7.00;;
34234;SDS011;20500;49.856;20.290;2023-11-21T15:22:30;15.80;;;7.70;;
34234;SDS011;20500;49.856;20.290;2023-11-21T15:25:36;16.10;;;6.50;;
34234;SDS011;20500;49.856;20.290;2023-11-21T15:28:42;15.10;;;7.30;;
34234;SDS011;20500;49.856;20.290;2023-11-21T15:31:48;12.90;;;6.80;;
34234;SDS011;20500;49.856;20.290;2023-11-21T15:34:59;15.40;;;6.90;;
34234;SDS011;20500;49.856;20.290;2023-11-21T15:38:05;15.40;;;7.90;;
34234;SDS011;20500;49.856;20.290;2023-11-21T15:41:11;13.70;;;8.30;;
34234;SDS011;20500;49.856;20.290;2023-11-21T15:44:17;14.60;;;8.70;;
34234;SDS011;20500;49.856;20.290;2023-11-21T15:50:27;15.50;;;7.30;;
34234;SDS011;20500;49.856;20.290;2023-11-21T15:53:34;13.90;;;6.60;;
34234;SDS011;20500;49.856;20.290;2023-11-21T15:56:40;15.60;;;7.60;;
34234;SDS011;20500;49.856;20.290;2023-11-21T15:59:47;33.70;;;23.20;;
34234;SDS011;20500;49.856;20.290;2023-11-21T16:02:53;21.80;;;12.80;;
34234;SDS011;20500;49.856;20.290;2023-11-21T16:06:00;15.20;;;8.40;;
34234;SDS011;20500;49.856;20.290;2023-11-21T16:09:07;15.90;;;8.90;;
34234;SDS011;20500;49.856;20.290;2023-11-21T16:12:23;14.90;;;8.40;;
34234;SDS011;20500;49.856;20.290;2023-11-21T16:15:29;15.10;;;7.50;;
34234;SDS011;20500;49.856;20.290;2023-11-21T16:18:36;16.30;;;8.60;;
34234;SDS011;20500;49.856;20.290;2023-11-21T16:21:42;16.60;;;9.50;;
34234;SDS011;20500;49.856;20.290;2023-11-21T16:24:51;26.80;;;16.30;;
34234;SDS011;20500;49.856;20.290;2023-11-21T16:27:56;29.20;;;19.60;;
34234;SDS011;20500;49.856;20.290;2023-11-21T16:31:07;18.50;;;10.20;;
34234;SDS011;20500;49.856;20.290;2023-11-21T16:34:14;16.80;;;8.80;;
34234;SDS011;20500;49.856;20.290;2023-11-21T16:37:22;15.50;;;8.10;;
34234;SDS011;20500;49.856;20.290;2023-11-21T16:40:28;15.00;;;8.50;;
34234;SDS011;20500;49.856;20.290;2023-11-21T16:43:34;19.60;;;11.60;;
34234;SDS011;20500;49.856;20.290;2023-11-21T16:46:40;19.60;;;11.80;;
34234;SDS011;20500;49.856;20.290;2023-11-21T16:49:50;19.10;;;12.70;;
34234;SDS011;20500;49.856;20.290;2023-11-21T16:52:55;20.30;;;14.90;;
34234;SDS011;20500;49.856;20.290;2023-11-21T16:56:01;19.10;;;11.60;;
34234;SDS011;20500;49.856;20.290;2023-11-21T16:59:07;18.20;;;11.10;;
34234;SDS011;20500;49.856;20.290;2023-11-21T17:02:13;19.00;;;12.20;;
34234;SDS011;20500;49.856;20.290;2023-11-21T17:05:19;19.00;;;11.70;;
34234;SDS011;20500;49.856;20.290;2023-11-21T17:14:35;18.60;;;10.40;;
34234;SDS011;20500;49.856;20.290;2023-11-21T17:17:41;18.00;;;10.40;;
34234;SDS011;20500;49.856;20.290;2023-11-21T17:23:53;17.30;;;10.30;;
34234;SDS011;20500;49.856;20.290;2023-11-21T17:26:59;20.40;;;12.70;;
34234;SDS011;20500;49.856;20.290;2023-11-21T17:30:06;18.10;;;10.60;;
34234;SDS011;20500;49.856;20.290;2023-11-21T17:33:13;37.10;;;24.50;;
34234;SDS011;20500;49.856;20.290;2023-11-21T17:36:19;18.30;;;11.30;;
34234;SDS011;20500;49.856;20.290;2023-11-21T17:39:25;17.10;;;9.80;;
34234;SDS011;20500;49.856;20.290;2023-11-21T17:42:31;17.20;;;9.90;;
34234;SDS011;20500;49.856;20.290;2023-11-21T17:45:37;16.10;;;9.50;;
34234;SDS011;20500;49.856;20.290;2023-11-21T17:51:47;16.80;;;10.00;;
34234;SDS011;20500;49.856;20.290;2023-11-21T17:54:53;16.10;;;9.80;;
34234;SDS011;20500;49.856;20.290;2023-11-21T17:57:59;16.10;;;10.40;;
34234;SDS011;20500;49.856;20.290;2023-11-21T18:01:05;47.50;;;34.10;;
34234;SDS011;20500;49.856;20.290;2023-11-21T18:04:11;21.30;;;13.10;;
34234;SDS011;20500;49.856;20.290;2023-11-21T18:07:17;18.80;;;10.90;;
34234;SDS011;20500;49.856;20.290;2023-11-21T18:10:23;18.00;;;11.30;;
34234;SDS011;20500;49.856;20.290;2023-11-21T18:13:28;16.40;;;9.80;;
34234;SDS011;20500;49.856;20.290;2023-11-21T18:16:34;17.30;;;10.30;;
34234;SDS011;20500;49.856;20.290;2023-11-21T18:19:41;17.80;;;10.50;;
34234;SDS011;20500;49.856;20.290;2023-11-21T18:22:50;18.10;;;10.40;;
34234;SDS011;20500;49.856;20.290;2023-11-21T18:25:55;19.00;;;11.50;;
34234;SDS011;20500;49.856;20.290;2023-11-21T18:29:01;18.50;;;11.20;;
34234;SDS011;20500;49.856;20.290;2023-11-21T18:32:07;19.80;;;12.30;;
34234;SDS011;20500;49.856;20.290;2023-11-21T18:35:14;22.00;;;14.30;;
34234;SDS011;20500;49.856;20.290;2023-11-21T18:38:20;21.50;;;12.80;;
34234;SDS011;20500;49.856;20.290;2023-11-21T18:41:26;21.70;;;12.70;;
34234;SDS011;20500;49.856;20.290;2023-11-21T18:44:34;19.40;;;12.10;;
34234;SDS011;20500;49.856;20.290;2023-11-21T18:47:57;20.50;;;11.60;;
34234;SDS011;20500;49.856;20.290;2023-11-21T18:51:03;21.60;;;13.10;;
34234;SDS011;20500;49.856;20.290;2023-11-21T18:54:11;24.10;;;14.10;;
34234;SDS011;20500;49.856;20.290;2023-11-21T18:57:17;20.80;;;13.20;;
34234;SDS011;20500;49.856;20.290;2023-11-21T19:00:23;21.60;;;12.70;;
34234;SDS011;20500;49.856;20.290;2023-11-21T19:03:29;23.90;;;13.70;;
34234;SDS011;20500;49.856;20.290;2023-11-21T19:06:35;20.40;;;12.10;;
34234;SDS011;20500;49.856;20.290;2023-11-21T19:09:41;21.10;;;12.20;;